createdAt,value
2019-04-11T00:00:31.038Z,4.60
2019-04-11T00:01:38.723Z,4.50
2019-04-11T00:02:30.921Z,4.80
2019-04-11T00:03:29.962Z,4.40
2019-04-11T00:04:30.281Z,4.30
2019-04-11T00:05:30.714Z,4.60
2019-04-11T00:06:29.930Z,4.50
2019-04-11T00:07:30.152Z,4.80
2019-04-11T00:08:30.177Z,4.40
2019-04-11T00:09:30.423Z,4.30
2019-04-11T00:10:29.893Z,4.40
2019-04-11T00:11:30.191Z,4.70
2019-04-11T00:12:30.515Z,4.50
2019-04-11T00:13:31.751Z,4.40
2019-04-11T00:14:29.855Z,4.60
2019-04-11T00:15:30.699Z,4.40
2019-04-11T00:16:30.942Z,4.70
2019-04-11T00:17:30.055Z,4.40
2019-04-11T00:18:30.375Z,4.20
2019-04-11T00:19:29.803Z,4.50
2019-04-11T00:20:29.795Z,4.40
2019-04-11T00:21:30.862Z,4.60
2019-04-11T00:22:29.929Z,4.30
2019-04-11T00:23:30.260Z,5.00
2019-04-11T00:24:29.751Z,4.50
2019-04-11T00:25:29.741Z,4.60
2019-04-11T00:26:30.560Z,4.40
2019-04-11T00:27:29.878Z,4.50
2019-04-11T00:28:29.952Z,4.40
2019-04-11T00:29:30.296Z,4.60
2019-04-11T00:30:30.310Z,4.50
2019-04-11T00:31:30.641Z,4.60
2019-04-11T00:32:29.681Z,4.90
2019-04-11T00:33:29.966Z,4.80
2019-04-11T00:34:29.650Z,4.40
2019-04-11T00:35:29.642Z,4.30
2019-04-11T00:36:30.526Z,4.40
2019-04-11T00:37:29.619Z,4.10
2019-04-11T00:38:29.981Z,4.60
2019-04-11T00:39:29.943Z,4.60
2019-04-11T00:40:29.595Z,4.40
2019-04-11T00:41:30.054Z,4.70
2019-04-11T00:42:30.452Z,4.70
2019-04-11T00:43:35.848Z,4.40
2019-04-11T00:44:30.549Z,4.70
2019-04-11T00:45:29.724Z,4.40
2019-04-11T00:46:29.530Z,4.40
2019-04-11T00:47:29.520Z,4.50
2019-04-11T00:48:30.040Z,4.50
2019-04-11T00:49:30.393Z,4.70
2019-04-11T00:50:30.138Z,4.60
2019-04-11T00:51:29.477Z,4.70
2019-04-11T00:52:29.530Z,4.40
2019-04-11T00:53:29.838Z,4.70
2019-04-11T00:54:29.451Z,4.50
2019-04-11T00:55:29.438Z,4.50
2019-04-11T00:56:30.473Z,4.70
2019-04-11T00:57:30.650Z,4.40
2019-04-11T00:58:29.765Z,4.90
2019-04-11T00:59:30.076Z,4.60
2019-04-11T01:00:29.386Z,4.40
2019-04-11T01:01:29.375Z,4.50
2019-04-11T01:02:29.477Z,5.00
2019-04-11T01:03:30.431Z,4.50
2019-04-11T01:04:29.356Z,4.60
2019-04-11T01:05:29.791Z,4.30
2019-04-11T01:06:30.083Z,4.60
2019-04-11T01:07:29.312Z,4.50
2019-04-11T01:08:29.429Z,4.60
2019-04-11T01:09:30.453Z,4.50
2019-04-11T01:10:29.982Z,4.60
2019-04-11T01:11:30.064Z,4.80
2019-04-11T01:12:29.277Z,4.60
2019-04-11T01:13:39.703Z,4.50
2019-04-11T01:14:29.948Z,4.70
2019-04-11T01:15:29.295Z,4.60
2019-04-11T01:16:29.386Z,4.50
2019-04-11T01:17:29.541Z,4.90
2019-04-11T01:18:29.880Z,4.60
2019-04-11T01:19:29.196Z,4.50
2019-04-11T01:20:29.379Z,4.40
2019-04-11T01:21:29.171Z,4.30
2019-04-11T01:22:29.878Z,4.40
2019-04-11T01:23:29.234Z,4.80
2019-04-11T01:24:29.156Z,4.50
2019-04-11T01:25:29.157Z,4.80
2019-04-11T01:26:29.744Z,4.50
2019-04-11T01:27:29.878Z,5.00
2019-04-11T01:28:29.098Z,4.30
2019-04-11T01:29:29.285Z,4.70
2019-04-11T01:30:30.228Z,4.40
2019-04-11T01:31:29.497Z,4.10
2019-04-11T01:32:29.056Z,4.60
2019-04-11T01:33:29.691Z,4.60
2019-04-11T01:34:29.033Z,4.80
2019-04-11T01:35:29.034Z,4.40
2019-04-11T01:36:29.136Z,4.70
2019-04-11T01:37:29.007Z,4.40
2019-04-11T01:38:28.992Z,4.50
2019-04-11T01:39:29.421Z,4.40
2019-04-11T01:40:29.809Z,4.70
2019-04-11T01:41:28.963Z,4.40
2019-04-11T01:42:29.097Z,4.60
2019-04-11T01:43:29.631Z,4.50
2019-04-11T01:44:28.930Z,4.30
2019-04-11T01:45:29.587Z,4.50
2019-04-11T01:46:29.823Z,4.40
2019-04-11T01:47:28.963Z,4.60
2019-04-11T01:48:28.888Z,4.30
2019-04-11T01:49:28.878Z,4.40
2019-04-11T01:50:29.271Z,4.40
2019-04-11T01:51:29.669Z,4.60
2019-04-11T01:52:28.852Z,4.20
2019-04-11T01:53:28.875Z,4.60
2019-04-11T01:54:29.939Z,4.60
2019-04-11T01:55:28.815Z,4.60
2019-04-11T01:56:29.390Z,4.70
2019-04-11T01:57:29.723Z,4.70
2019-04-11T01:58:28.914Z,4.80
2019-04-11T01:59:29.157Z,4.30
2019-04-11T02:00:28.761Z,4.50
2019-04-11T02:01:28.751Z,4.20
2019-04-11T02:02:28.761Z,4.60
2019-04-11T02:03:28.732Z,4.60
2019-04-11T02:04:29.853Z,4.70
2019-04-11T02:05:29.358Z,4.50
2019-04-11T02:06:29.791Z,4.40
2019-04-11T02:07:28.882Z,4.10
2019-04-11T02:08:28.679Z,4.60
2019-04-11T02:09:28.665Z,4.80
2019-04-11T02:10:28.794Z,4.40
2019-04-11T02:11:29.651Z,4.70
2019-04-11T02:12:29.064Z,4.50
2019-04-11T02:13:28.625Z,4.50
2019-04-11T02:14:28.615Z,4.90
2019-04-11T02:15:28.607Z,4.60
2019-04-11T02:16:29.325Z,4.50
2019-04-11T02:17:28.608Z,4.70
2019-04-11T02:18:29.660Z,4.60
2019-04-11T02:19:28.559Z,4.70
2019-04-11T02:20:29.138Z,4.50
2019-04-11T02:21:29.486Z,4.80
2019-04-11T02:22:28.633Z,4.80
2019-04-11T02:23:28.874Z,4.80
2019-04-11T02:24:28.510Z,4.60
2019-04-11T02:25:28.495Z,4.50
2019-04-11T02:26:29.353Z,4.80
2019-04-11T02:27:28.473Z,4.50
2019-04-11T02:28:28.731Z,5.00
2019-04-11T02:29:28.454Z,4.90
2019-04-11T02:30:30.010Z,4.70
2019-04-11T02:31:28.428Z,4.60
2019-04-11T02:32:29.293Z,4.60
2019-04-11T02:33:28.435Z,4.30
2019-04-11T02:34:29.646Z,4.70
2019-04-11T02:35:28.894Z,5.00
2019-04-11T02:36:30.049Z,4.60
2019-04-11T02:37:29.393Z,4.70
2019-04-11T02:38:28.526Z,4.60
2019-04-11T02:39:30.753Z,4.70
2019-04-11T02:40:30.009Z,4.50
2019-04-11T02:41:29.849Z,4.70
2019-04-11T02:42:28.315Z,4.80
2019-04-11T02:43:29.460Z,4.80
2019-04-11T02:44:39.844Z,4.80
2019-04-11T02:45:43.287Z,4.50
2019-04-11T02:46:35.610Z,5.00
2019-04-11T02:47:31.912Z,4.60
2019-04-11T02:48:28.819Z,4.60
2019-04-11T02:49:28.249Z,4.60
2019-04-11T02:50:29.749Z,4.60
2019-04-11T02:51:28.900Z,4.70
2019-04-11T02:52:28.272Z,4.40
2019-04-11T02:53:29.955Z,4.60
2019-04-11T02:54:28.432Z,4.80
2019-04-11T02:55:29.463Z,4.30
2019-04-11T02:56:28.168Z,4.20
2019-04-11T02:57:29.819Z,4.90
2019-04-11T02:58:30.030Z,4.60
2019-04-11T02:59:29.737Z,4.70
2019-04-11T03:00:29.148Z,4.50
2019-04-11T03:01:28.447Z,4.50
2019-04-11T03:02:28.116Z,4.40
2019-04-11T03:03:29.627Z,4.40
2019-04-11T03:04:29.012Z,4.40
2019-04-11T03:05:28.871Z,4.70
2019-04-11T03:06:28.078Z,4.80
2019-04-11T03:07:29.885Z,4.40
2019-04-11T03:08:29.872Z,4.60
2019-04-11T03:09:29.155Z,4.80
2019-04-11T03:10:28.917Z,4.50
2019-04-11T03:11:28.003Z,4.60
2019-04-11T03:12:29.622Z,4.50
2019-04-11T03:13:29.493Z,4.50
2019-04-11T03:14:44.616Z,4.50
2019-04-11T03:15:42.987Z,4.40
2019-04-11T03:16:42.797Z,4.70
2019-04-11T03:17:34.126Z,4.40
2019-04-11T03:18:51.041Z,4.80
2019-04-11T03:19:42.750Z,4.70
2019-04-11T03:20:34.459Z,4.90
2019-04-11T03:21:30.799Z,4.80
2019-04-11T03:22:27.884Z,4.80
2019-04-11T03:23:28.029Z,4.70
2019-04-11T03:24:30.445Z,4.90
2019-04-11T03:25:28.360Z,5.00
2019-04-11T03:26:29.189Z,4.90
2019-04-11T03:27:30.420Z,5.10
2019-04-11T03:28:30.894Z,4.90
2019-04-11T03:29:28.845Z,4.80
2019-04-11T03:30:42.173Z,5.30
2019-04-11T03:32:05.726Z,5.20
2019-04-11T03:34:24.289Z,5.60
2019-04-11T03:36:27.499Z,5.30
2019-04-11T03:37:53.947Z,5.70
2019-04-11T03:38:48.236Z,5.80
2019-04-11T03:39:43.579Z,5.70
2019-04-11T03:40:46.608Z,5.50
2019-04-11T03:41:48.829Z,5.70
2019-04-11T03:42:44.946Z,5.60
2019-04-11T03:43:39.776Z,5.60
2019-04-11T03:44:33.513Z,5.80
2019-04-11T03:45:48.059Z,5.80
2019-04-11T03:46:44.956Z,5.70
2019-04-11T03:47:37.471Z,5.80
2019-04-11T03:48:40.875Z,6.10
2019-04-11T03:49:35.609Z,5.90
2019-04-11T03:50:30.524Z,5.80
2019-04-11T03:51:27.774Z,5.70
2019-04-11T03:52:28.441Z,5.80
2019-04-11T03:53:29.798Z,5.70
2019-04-11T03:54:27.527Z,5.80
2019-04-11T03:55:28.384Z,5.70
2019-04-11T03:56:28.620Z,6.10
2019-04-11T03:57:27.751Z,5.80
2019-04-11T03:58:29.247Z,5.60
2019-04-11T03:59:28.872Z,5.80
2019-04-11T04:00:33.550Z,5.70
2019-04-11T04:01:27.455Z,6.00
2019-04-11T04:02:28.308Z,6.00
2019-04-11T04:03:29.497Z,6.00
2019-04-11T04:04:28.919Z,6.10
2019-04-11T04:05:30.156Z,5.90
2019-04-11T04:06:28.702Z,6.30
2019-04-11T04:07:27.741Z,6.00
2019-04-11T04:08:29.168Z,5.90
2019-04-11T04:09:29.275Z,6.30
2019-04-11T04:10:27.804Z,6.20
2019-04-11T04:11:29.531Z,5.90
2019-04-11T04:12:27.956Z,6.20
2019-04-11T04:13:30.126Z,5.80
2019-04-11T04:14:28.545Z,6.00
2019-04-11T04:15:41.052Z,6.20
2019-04-11T04:16:35.806Z,6.00
2019-04-11T04:17:27.761Z,6.20
2019-04-11T04:18:27.746Z,6.00
2019-04-11T04:19:30.695Z,6.00
2019-04-11T04:20:28.520Z,5.90
2019-04-11T04:21:28.712Z,5.70
2019-04-11T04:22:27.385Z,5.60
2019-04-11T04:23:27.387Z,5.90
2019-04-11T04:24:28.756Z,5.80
2019-04-11T04:25:28.589Z,5.90
2019-04-11T04:26:27.171Z,6.00
2019-04-11T04:27:28.035Z,6.10
2019-04-11T04:28:27.366Z,5.70
2019-04-11T04:29:29.111Z,6.10
2019-04-11T04:30:28.859Z,5.80
2019-04-11T04:31:28.583Z,6.10
2019-04-11T04:32:28.029Z,6.10
2019-04-11T04:33:28.783Z,6.20
2019-04-11T04:34:28.347Z,5.60
2019-04-11T04:35:28.429Z,6.30
2019-04-11T04:36:28.846Z,5.80
2019-04-11T04:37:27.103Z,6.20
2019-04-11T04:38:27.292Z,6.00
2019-04-11T04:39:27.883Z,5.80
2019-04-11T04:40:44.782Z,6.00
2019-04-11T04:41:37.750Z,6.00
2019-04-11T04:42:31.552Z,6.00
2019-04-11T04:43:27.454Z,6.10
2019-04-11T04:44:26.976Z,5.70
2019-04-11T04:45:27.645Z,5.90
2019-04-11T04:46:43.515Z,6.20
2019-04-11T04:47:37.284Z,6.00
2019-04-11T04:48:29.228Z,6.10
2019-04-11T04:49:28.188Z,6.00
2019-04-11T04:50:28.448Z,6.00
2019-04-11T04:51:26.927Z,6.10
2019-04-11T04:52:27.926Z,6.10
2019-04-11T04:53:28.389Z,5.80
2019-04-11T04:54:28.438Z,6.00
2019-04-11T04:55:28.556Z,5.90
2019-04-11T04:56:30.764Z,5.90
2019-04-11T04:57:27.424Z,6.00
2019-04-11T04:58:26.805Z,6.10
2019-04-11T04:59:28.201Z,6.00
2019-04-11T05:00:27.998Z,6.40
2019-04-11T05:01:28.862Z,5.80
2019-04-11T05:02:28.257Z,5.90
2019-04-11T05:03:26.991Z,6.30
2019-04-11T05:04:27.553Z,5.90
2019-04-11T05:05:28.424Z,5.50
2019-04-11T05:06:28.057Z,5.90
2019-04-11T05:07:30.399Z,6.10
2019-04-11T05:08:27.207Z,6.10
2019-04-11T05:09:26.677Z,5.90
2019-04-11T05:10:28.356Z,6.10
2019-04-11T05:11:28.218Z,5.70
2019-04-11T05:12:28.083Z,6.00
2019-04-11T05:13:27.790Z,5.80
2019-04-11T05:14:27.462Z,5.90
2019-04-11T05:15:28.102Z,5.80
2019-04-11T05:16:26.601Z,5.90
2019-04-11T05:17:28.805Z,5.50
2019-04-11T05:18:27.886Z,6.20
2019-04-11T05:19:28.455Z,5.90
2019-04-11T05:20:26.548Z,5.80
2019-04-11T05:21:27.600Z,6.50
2019-04-11T05:22:26.762Z,7.50
2019-04-11T05:23:27.571Z,7.80
2019-04-11T05:24:26.579Z,8.20
2019-04-11T05:25:26.545Z,7.50
2019-04-11T05:26:27.771Z,7.50
2019-04-11T05:27:26.470Z,7.80
2019-04-11T05:28:27.611Z,7.20
2019-04-11T05:29:27.172Z,8.10
2019-04-11T05:30:27.199Z,7.40
2019-04-11T05:31:26.935Z,7.50
2019-04-11T05:32:27.317Z,7.40
2019-04-11T05:33:27.375Z,7.40
2019-04-11T05:34:26.396Z,7.50
2019-04-11T05:35:26.924Z,7.80
2019-04-11T05:36:26.376Z,7.40
2019-04-11T05:37:26.963Z,7.70
2019-04-11T05:38:27.319Z,7.90
2019-04-11T05:39:27.546Z,7.60
2019-04-11T05:40:26.336Z,7.30
2019-04-11T05:41:26.328Z,6.90
2019-04-11T05:42:27.117Z,7.40
2019-04-11T05:43:29.297Z,7.00
2019-04-11T05:44:26.302Z,6.80
2019-04-11T05:45:26.493Z,6.50
2019-04-11T05:46:35.376Z,7.00
2019-04-11T05:47:27.516Z,7.30
2019-04-11T05:48:27.121Z,6.80
2019-04-11T05:49:26.339Z,6.70
2019-04-11T05:50:26.411Z,6.80
2019-04-11T05:51:26.427Z,6.90
2019-04-11T05:52:27.461Z,6.00
2019-04-11T05:53:26.214Z,6.60
2019-04-11T05:54:28.105Z,6.40
2019-04-11T05:55:26.197Z,6.00
2019-04-11T05:56:26.190Z,6.70
2019-04-11T05:57:33.625Z,6.30
2019-04-11T05:58:26.221Z,6.20
2019-04-11T05:59:27.153Z,6.10
2019-04-11T06:00:26.315Z,6.20
2019-04-11T06:01:27.318Z,5.60
2019-04-11T06:02:26.833Z,6.30
2019-04-11T06:03:26.153Z,5.10
2019-04-11T06:04:28.488Z,5.80
2019-04-11T06:05:29.624Z,5.40
2019-04-11T06:06:26.814Z,5.80
2019-04-11T06:07:27.181Z,5.50
2019-04-11T06:08:28.456Z,5.70
2019-04-11T06:09:30.360Z,5.30
2019-04-11T06:10:26.165Z,5.20
2019-04-11T06:11:26.424Z,5.40
2019-04-11T06:12:26.051Z,5.80
2019-04-11T06:13:26.785Z,5.50
2019-04-11T06:14:27.082Z,5.60
2019-04-11T06:15:27.033Z,5.40
2019-04-11T06:16:36.128Z,5.30
2019-04-11T06:17:26.029Z,5.70
2019-04-11T06:18:32.529Z,4.60
2019-04-11T06:19:25.995Z,5.40
2019-04-11T06:20:27.112Z,5.20
2019-04-11T06:21:26.227Z,5.50
2019-04-11T06:22:25.970Z,5.50
2019-04-11T06:23:25.962Z,5.00
2019-04-11T06:24:25.990Z,4.90
2019-04-11T06:25:27.993Z,5.00
2019-04-11T06:26:26.897Z,4.90
2019-04-11T06:27:25.934Z,5.10
2019-04-11T06:28:27.233Z,5.30
2019-04-11T06:29:26.785Z,4.90
2019-04-11T06:30:26.352Z,5.30
2019-04-11T06:31:26.329Z,5.00
2019-04-11T06:32:25.895Z,5.00
2019-04-11T06:33:26.763Z,4.60
2019-04-11T06:34:26.618Z,5.20
2019-04-11T06:35:26.173Z,4.50
2019-04-11T06:36:26.695Z,5.10
2019-04-11T06:37:25.880Z,4.80
2019-04-11T06:38:26.799Z,5.00
2019-04-11T06:39:25.852Z,4.40
2019-04-11T06:40:26.463Z,4.80
2019-04-11T06:41:26.292Z,4.50
2019-04-11T06:42:27.533Z,4.60
2019-04-11T06:43:25.816Z,4.60
2019-04-11T06:44:25.869Z,4.50
2019-04-11T06:45:25.802Z,4.70
2019-04-11T06:46:25.795Z,4.20
2019-04-11T06:47:27.087Z,4.60
2019-04-11T06:48:26.334Z,4.00
2019-04-11T06:49:26.608Z,4.00
2019-04-11T06:50:26.933Z,3.80
2019-04-11T06:51:26.096Z,3.80
2019-04-11T06:52:26.592Z,4.10
2019-04-11T06:53:25.928Z,3.70
2019-04-11T06:54:25.744Z,3.60
2019-04-11T06:55:26.725Z,4.10
2019-04-11T06:56:25.731Z,3.60
2019-04-11T06:57:25.788Z,4.00
2019-04-11T06:58:25.719Z,3.70
2019-04-11T06:59:26.090Z,3.90
2019-04-11T07:00:25.709Z,4.00
2019-04-11T07:01:25.880Z,3.60
2019-04-11T07:02:25.710Z,3.50
2019-04-11T07:03:28.668Z,3.60
2019-04-11T07:04:25.685Z,3.50
2019-04-11T07:05:26.742Z,3.40
2019-04-11T07:06:25.672Z,3.50
2019-04-11T07:07:28.454Z,3.30
2019-04-11T07:08:26.476Z,3.40
2019-04-11T07:09:25.655Z,3.60
2019-04-11T07:10:26.553Z,3.40
2019-04-11T07:11:25.643Z,3.60
2019-04-11T07:12:26.559Z,3.30
2019-04-11T07:13:25.635Z,3.80
2019-04-11T07:14:26.869Z,3.80
2019-04-11T07:15:25.629Z,3.50
2019-04-11T07:16:25.616Z,3.70
2019-04-11T07:17:25.608Z,3.70
2019-04-11T07:18:26.827Z,3.40
2019-04-11T07:19:26.513Z,3.00
2019-04-11T07:20:25.595Z,3.40
2019-04-11T07:21:25.593Z,3.00
2019-04-11T07:22:25.591Z,3.00
2019-04-11T07:23:26.446Z,3.10
2019-04-11T07:24:25.574Z,3.00
2019-04-11T07:25:26.745Z,3.40
2019-04-11T07:26:25.763Z,3.30
2019-04-11T07:27:25.761Z,3.30
2019-04-11T07:28:25.556Z,2.90
2019-04-11T07:29:25.853Z,3.30
2019-04-11T07:30:25.617Z,3.00
2019-04-11T07:31:25.540Z,3.00
2019-04-11T07:32:25.764Z,2.90
2019-04-11T07:33:26.652Z,2.80
2019-04-11T07:34:26.772Z,2.60
2019-04-11T07:35:25.526Z,2.70
2019-04-11T07:36:25.518Z,2.80
2019-04-11T07:37:26.092Z,2.60
2019-04-11T07:38:25.506Z,2.40
2019-04-11T07:39:25.607Z,2.50
2019-04-11T07:40:26.770Z,2.70
2019-04-11T07:41:26.098Z,2.60
2019-04-11T07:42:25.971Z,2.80
2019-04-11T07:43:25.478Z,3.00
2019-04-11T07:44:27.515Z,2.60
2019-04-11T07:45:25.466Z,2.50
2019-04-11T07:46:26.885Z,2.40
2019-04-11T07:47:27.642Z,2.30
2019-04-11T07:48:25.444Z,2.20
2019-04-11T07:49:26.467Z,2.50
2019-04-11T07:50:26.226Z,2.60
2019-04-11T07:51:25.424Z,2.40
2019-04-11T07:52:25.417Z,2.10
2019-04-11T07:53:26.231Z,2.40
2019-04-11T07:54:25.920Z,2.50
2019-04-11T07:55:25.784Z,2.10
2019-04-11T07:56:25.385Z,2.30
2019-04-11T07:57:26.340Z,2.30
2019-04-11T07:58:25.379Z,2.10
2019-04-11T07:59:25.362Z,2.00
2019-04-11T08:00:37.922Z,1.80
2019-04-11T08:01:25.346Z,2.00
2019-04-11T08:02:25.357Z,1.90
2019-04-11T08:03:25.563Z,2.10
2019-04-11T08:04:25.323Z,1.70
2019-04-11T08:05:25.310Z,1.80
2019-04-11T08:06:26.440Z,1.90
2019-04-11T08:07:25.296Z,1.70
2019-04-11T08:08:25.705Z,1.90
2019-04-11T08:09:25.291Z,1.60
2019-04-11T08:10:25.265Z,1.80
2019-04-11T08:11:25.529Z,1.70
2019-04-11T08:12:25.502Z,1.80
2019-04-11T08:13:26.242Z,1.70
2019-04-11T08:14:26.525Z,1.80
2019-04-11T08:15:25.858Z,1.70
2019-04-11T08:16:25.217Z,1.70
2019-04-11T08:17:30.824Z,1.80
2019-04-11T08:18:26.141Z,2.00
2019-04-11T08:19:25.189Z,1.70
2019-04-11T08:20:25.649Z,1.60
2019-04-11T08:21:26.212Z,1.70
2019-04-11T08:22:25.241Z,1.40
2019-04-11T08:23:25.155Z,1.70
2019-04-11T08:24:26.860Z,1.80
2019-04-11T08:25:25.138Z,1.60
2019-04-11T08:26:26.177Z,1.50
2019-04-11T08:27:25.356Z,1.50
2019-04-11T08:28:25.116Z,1.40
2019-04-11T08:29:27.021Z,1.60
2019-04-11T08:30:26.594Z,1.50
2019-04-11T08:31:27.044Z,1.40
2019-04-11T08:32:25.516Z,1.40
2019-04-11T08:33:25.069Z,1.40
2019-04-11T08:34:25.142Z,1.60
2019-04-11T08:35:26.160Z,1.60
2019-04-11T08:36:26.105Z,1.70
2019-04-11T08:37:25.036Z,1.80
2019-04-11T08:38:25.031Z,1.80
2019-04-11T08:39:25.015Z,1.60
2019-04-11T08:40:25.995Z,1.40
2019-04-11T08:41:25.392Z,1.40
2019-04-11T08:42:25.414Z,1.20
2019-04-11T08:43:24.983Z,1.20
2019-04-11T08:44:25.952Z,1.40
2019-04-11T08:45:25.809Z,1.20
2019-04-11T08:46:24.956Z,1.20
2019-04-11T08:47:24.952Z,1.30
2019-04-11T08:48:24.940Z,1.20
2019-04-11T08:49:26.010Z,1.20
2019-04-11T08:50:26.077Z,1.20
2019-04-11T08:51:25.384Z,1.40
2019-04-11T08:52:24.911Z,1.30
2019-04-11T08:53:24.897Z,1.50
2019-04-11T08:54:25.799Z,1.30
2019-04-11T08:55:24.880Z,1.40
2019-04-11T08:56:25.078Z,1.50
2019-04-11T08:57:25.434Z,1.60
2019-04-11T08:58:24.854Z,1.40
2019-04-11T08:59:25.028Z,1.20
2019-04-11T09:00:24.838Z,1.30
2019-04-11T09:01:24.830Z,1.20
2019-04-11T09:02:24.835Z,1.30
2019-04-11T09:03:25.903Z,1.10
2019-04-11T09:04:25.957Z,1.10
2019-04-11T09:05:25.010Z,1.20
2019-04-11T09:06:24.903Z,1.30
2019-04-11T09:07:25.415Z,1.30
2019-04-11T09:08:25.168Z,1.20
2019-04-11T09:09:25.049Z,1.10
2019-04-11T09:10:24.757Z,1.10
2019-04-11T09:11:24.751Z,1.00
2019-04-11T09:12:24.735Z,1.20
2019-04-11T09:13:24.961Z,1.30
2019-04-11T09:14:24.716Z,1.30
2019-04-11T09:15:24.708Z,1.20
2019-04-11T09:16:25.694Z,1.30
2019-04-11T09:17:24.690Z,1.40
2019-04-11T09:18:24.687Z,1.20
2019-04-11T09:19:25.122Z,1.10
2019-04-11T09:20:24.686Z,1.30
2019-04-11T09:21:24.657Z,1.20
2019-04-11T09:22:24.693Z,1.20
2019-04-11T09:23:25.822Z,1.20
2019-04-11T09:24:24.634Z,1.20
2019-04-11T09:25:25.279Z,1.10
2019-04-11T09:26:25.653Z,1.20
2019-04-11T09:27:24.832Z,1.30
2019-04-11T09:28:24.955Z,1.10
2019-04-11T09:29:24.589Z,1.00
2019-04-11T09:30:25.087Z,1.20
2019-04-11T09:31:25.499Z,1.10
2019-04-11T09:32:25.174Z,1.00
2019-04-11T09:33:24.694Z,1.10
2019-04-11T09:34:25.830Z,0.80
2019-04-11T09:35:24.541Z,1.10
2019-04-11T09:36:24.530Z,1.10
2019-04-11T09:37:25.362Z,1.00
2019-04-11T09:38:24.514Z,1.00
2019-04-11T09:39:24.505Z,1.00
2019-04-11T09:40:24.834Z,0.90
2019-04-11T09:41:24.802Z,1.00
2019-04-11T09:42:24.486Z,1.10
2019-04-11T09:43:24.480Z,1.10
2019-04-11T09:44:24.564Z,1.10
2019-04-11T09:45:25.668Z,1.20
2019-04-11T09:46:24.445Z,1.20
2019-04-11T09:47:24.501Z,1.10
2019-04-11T09:48:25.186Z,1.00
2019-04-11T09:49:24.429Z,1.10
2019-04-11T09:50:24.646Z,1.20
2019-04-11T09:51:26.458Z,1.10
2019-04-11T09:52:24.817Z,1.00
2019-04-11T09:53:24.418Z,1.00
2019-04-11T09:54:24.379Z,1.10
2019-04-11T09:55:25.453Z,1.00
2019-04-11T09:56:24.354Z,1.10
2019-04-11T09:57:24.892Z,1.10
2019-04-11T09:58:25.339Z,1.00
2019-04-11T09:59:25.060Z,1.20
2019-04-11T10:00:24.333Z,1.10
2019-04-11T10:01:24.569Z,1.00
2019-04-11T10:02:25.345Z,1.00
2019-04-11T10:03:25.511Z,1.00
2019-04-11T10:04:25.539Z,1.20
2019-04-11T10:05:24.456Z,1.20
2019-04-11T10:06:24.292Z,1.10
2019-04-11T10:07:24.275Z,1.00
2019-04-11T10:08:24.574Z,1.10
2019-04-11T10:09:24.256Z,1.30
2019-04-11T10:10:24.653Z,1.20
2019-04-11T10:11:24.242Z,1.30
2019-04-11T10:12:24.284Z,1.10
2019-04-11T10:13:24.961Z,1.00
2019-04-11T10:14:24.215Z,1.10
2019-04-11T10:15:24.207Z,1.20
2019-04-11T10:16:24.230Z,1.10
2019-04-11T10:17:26.316Z,1.20
2019-04-11T10:18:28.550Z,1.20
2019-04-11T10:19:24.399Z,1.00
2019-04-11T10:20:24.494Z,1.00
2019-04-11T10:21:24.674Z,1.10
2019-04-11T10:22:24.412Z,0.90
2019-04-11T10:23:25.033Z,0.90
2019-04-11T10:24:24.313Z,0.80
2019-04-11T10:25:25.244Z,0.90
2019-04-11T10:26:24.124Z,0.90
2019-04-11T10:27:24.725Z,0.90
2019-04-11T10:28:25.033Z,0.90
2019-04-11T10:29:24.097Z,0.90
2019-04-11T10:30:24.106Z,1.00
2019-04-11T10:31:24.189Z,0.90
2019-04-11T10:32:25.323Z,0.90
2019-04-11T10:33:24.712Z,1.00
2019-04-11T10:34:24.059Z,1.10
2019-04-11T10:35:24.135Z,1.00
2019-04-11T10:36:25.226Z,1.10
2019-04-11T10:37:24.065Z,1.10
2019-04-11T10:38:24.546Z,1.20
2019-04-11T10:39:24.971Z,1.00
2019-04-11T10:40:24.114Z,1.00
2019-04-11T10:41:25.129Z,1.10
2019-04-11T10:42:23.994Z,1.00
2019-04-11T10:43:24.550Z,1.10
2019-04-11T10:44:23.982Z,1.10
2019-04-11T10:45:24.898Z,1.40
2019-04-11T10:46:25.083Z,1.40
2019-04-11T10:47:25.023Z,1.00
2019-04-11T10:48:36.865Z,1.10
2019-04-11T10:49:24.082Z,0.90
2019-04-11T10:50:24.214Z,1.00
2019-04-11T10:51:24.711Z,1.00
2019-04-11T10:52:24.640Z,1.00
2019-04-11T10:53:24.934Z,1.00
2019-04-11T10:54:24.003Z,0.90
2019-04-11T10:55:23.892Z,1.00
2019-04-11T10:56:24.514Z,1.00
2019-04-11T10:57:24.372Z,1.10
2019-04-11T10:58:24.716Z,1.00
2019-04-11T10:59:26.551Z,0.90
2019-04-11T11:00:23.949Z,0.90
2019-04-11T11:01:24.975Z,1.00
2019-04-11T11:02:25.097Z,1.00
2019-04-11T11:03:24.366Z,1.20
2019-04-11T11:04:23.815Z,1.30
2019-04-11T11:05:24.298Z,1.20
2019-04-11T11:06:24.025Z,1.00
2019-04-11T11:07:24.645Z,1.10
2019-04-11T11:08:23.785Z,1.00
2019-04-11T11:09:24.011Z,1.00
2019-04-11T11:10:23.840Z,1.00
2019-04-11T11:11:24.080Z,1.20
2019-04-11T11:12:23.748Z,1.00
2019-04-11T11:13:23.766Z,1.10
2019-04-11T11:14:24.776Z,1.30
2019-04-11T11:15:23.732Z,1.10
2019-04-11T11:16:24.816Z,1.00
2019-04-11T11:17:47.051Z,1.10
2019-04-11T11:18:45.894Z,1.10
2019-04-11T11:19:41.918Z,0.90
2019-04-11T11:20:29.956Z,1.00
2019-04-11T11:21:28.529Z,0.90
2019-04-11T11:22:23.824Z,0.90
2019-04-11T11:23:24.587Z,0.90
2019-04-11T11:24:23.956Z,1.00
2019-04-11T11:25:24.657Z,0.90
2019-04-11T11:26:25.650Z,0.90
2019-04-11T11:27:24.395Z,1.00
2019-04-11T11:28:23.821Z,0.90
2019-04-11T11:29:24.298Z,0.80
2019-04-11T11:30:25.022Z,1.00
2019-04-11T11:31:24.430Z,0.90
2019-04-11T11:32:23.585Z,0.90
2019-04-11T11:33:25.141Z,0.80
2019-04-11T11:34:24.783Z,0.80
2019-04-11T11:35:27.352Z,0.90
2019-04-11T11:36:23.686Z,1.00
2019-04-11T11:37:24.832Z,1.00
2019-04-11T11:38:24.136Z,1.00
2019-04-11T11:39:24.685Z,0.80
2019-04-11T11:40:23.792Z,1.00
2019-04-11T11:41:24.653Z,1.20
2019-04-11T11:42:23.514Z,1.20
2019-04-11T11:43:23.498Z,1.10
2019-04-11T11:44:24.484Z,1.20
2019-04-11T11:45:23.671Z,1.10
2019-04-11T11:46:26.779Z,1.50
2019-04-11T11:47:23.724Z,1.10
2019-04-11T11:48:24.784Z,1.50
2019-04-11T11:49:37.622Z,1.40
2019-04-11T11:50:23.953Z,1.50
2019-04-11T11:51:26.957Z,1.40
2019-04-11T11:52:23.431Z,1.30
2019-04-11T11:53:25.769Z,1.30
2019-04-11T11:54:24.045Z,1.40
2019-04-11T11:55:23.400Z,1.40
2019-04-11T11:56:24.145Z,1.30
2019-04-11T11:57:23.580Z,1.30
2019-04-11T11:58:23.667Z,1.30
2019-04-11T11:59:23.367Z,1.20
2019-04-11T12:00:23.591Z,1.30
2019-04-11T12:01:24.054Z,1.40
2019-04-11T12:02:23.413Z,1.40
2019-04-11T12:03:26.468Z,1.40
2019-04-11T12:04:24.237Z,1.50
2019-04-11T12:05:26.065Z,1.50
2019-04-11T12:06:23.861Z,1.40
2019-04-11T12:07:23.298Z,1.50
2019-04-11T12:08:24.445Z,1.50
2019-04-11T12:09:24.519Z,1.60
2019-04-11T12:10:23.962Z,1.50
2019-04-11T12:11:24.093Z,1.40
2019-04-11T12:12:23.925Z,1.40
2019-04-11T12:13:23.271Z,1.40
2019-04-11T12:14:24.292Z,1.40
2019-04-11T12:15:25.709Z,1.30
2019-04-11T12:16:23.781Z,1.50
2019-04-11T12:17:23.283Z,1.50
2019-04-11T12:18:24.492Z,1.60
2019-04-11T12:19:23.197Z,1.40
2019-04-11T12:20:23.191Z,1.60
2019-04-11T12:21:26.339Z,2.00
2019-04-11T12:22:24.183Z,1.70
2019-04-11T12:23:24.195Z,1.90
2019-04-11T12:24:23.159Z,1.90
2019-04-11T12:25:23.152Z,2.00
2019-04-11T12:26:28.778Z,2.00
2019-04-11T12:27:23.131Z,2.10
2019-04-11T12:28:23.502Z,2.00
2019-04-11T12:29:24.101Z,2.00
2019-04-11T12:30:25.833Z,2.20
2019-04-11T12:31:23.886Z,2.20
2019-04-11T12:32:24.172Z,2.10
2019-04-11T12:33:23.508Z,1.90
2019-04-11T12:34:24.058Z,1.90
2019-04-11T12:35:25.482Z,1.80
2019-04-11T12:36:23.108Z,1.60
2019-04-11T12:37:23.179Z,1.60
2019-04-11T12:38:24.703Z,1.60
2019-04-11T12:39:24.751Z,1.60
2019-04-11T12:40:23.023Z,1.50
2019-04-11T12:41:23.080Z,1.50
2019-04-11T12:42:23.005Z,1.50
2019-04-11T12:43:23.001Z,1.50
2019-04-11T12:44:22.997Z,1.50
2019-04-11T12:45:22.981Z,1.50
2019-04-11T12:46:29.764Z,1.50
2019-04-11T12:47:22.963Z,1.40
2019-04-11T12:48:22.953Z,1.60
2019-04-11T12:49:22.949Z,1.60
2019-04-11T12:50:22.942Z,1.80
2019-04-11T12:51:22.928Z,1.60
2019-04-11T12:52:22.924Z,2.00
2019-04-11T12:53:23.021Z,1.60
2019-04-11T12:54:22.902Z,1.70
2019-04-11T12:55:22.898Z,1.50
2019-04-11T12:56:22.888Z,1.50
2019-04-11T12:57:22.876Z,1.40
2019-04-11T12:58:22.872Z,1.40
2019-04-11T12:59:22.864Z,1.60
2019-04-11T13:00:22.852Z,1.50
2019-04-11T13:01:22.838Z,1.60
2019-04-11T13:02:22.837Z,1.60
2019-04-11T13:03:22.935Z,1.50
2019-04-11T13:04:22.818Z,1.50
2019-04-11T13:05:22.805Z,1.50
2019-04-11T13:06:34.471Z,1.70
2019-04-11T13:07:22.976Z,1.70
2019-04-11T13:08:22.783Z,1.70
2019-04-11T13:09:22.827Z,1.60
2019-04-11T13:10:24.068Z,1.70
2019-04-11T13:11:22.758Z,1.50
2019-04-11T13:12:22.749Z,1.70
2019-04-11T13:13:22.747Z,1.70
2019-04-11T13:14:22.735Z,1.50
2019-04-11T13:15:22.819Z,1.50
2019-04-11T13:16:22.720Z,1.50
2019-04-11T13:17:22.718Z,1.50
2019-04-11T13:18:22.701Z,1.70
2019-04-11T13:19:22.692Z,1.60
2019-04-11T13:20:22.695Z,1.90
2019-04-11T13:21:22.678Z,1.50